createdAt,value
2023-02-08T00:01:14.869Z,-4.69
2023-02-08T00:03:43.136Z,-4.89
2023-02-08T00:06:11.606Z,-4.75
2023-02-08T00:08:40.238Z,-4.65
2023-02-08T00:11:10.607Z,-4.67
2023-02-08T00:13:41.638Z,-4.58
2023-02-08T00:16:13.785Z,-4.81
2023-02-08T00:18:41.966Z,-4.81
2023-02-08T00:21:11.207Z,-4.65
2023-02-08T00:23:39.405Z,-4.69
2023-02-08T00:26:07.303Z,-4.58
2023-02-08T00:28:35.271Z,-4.86
2023-02-08T00:31:04.376Z,-4.49
2023-02-08T00:33:33.863Z,-4.64
2023-02-08T00:36:02.739Z,-4.46
2023-02-08T00:38:31.233Z,-4.48
2023-02-08T00:40:59.092Z,-4.44
2023-02-08T00:43:27.104Z,-4.49
2023-02-08T00:45:56.220Z,-4.66
2023-02-08T00:48:24.097Z,-4.51
2023-02-08T00:51:01.177Z,-4.53
2023-02-08T00:53:29.205Z,-4.53
2023-02-08T00:55:57.682Z,-4.57
2023-02-08T00:58:25.785Z,-4.53
2023-02-08T01:00:54.058Z,-4.52
2023-02-08T01:03:22.574Z,-4.51
2023-02-08T01:05:50.651Z,-4.60
2023-02-08T01:08:21.377Z,-4.46
2023-02-08T01:10:49.277Z,-4.66
2023-02-08T01:13:17.161Z,-4.47
2023-02-08T01:15:45.078Z,-4.48
2023-02-08T01:18:12.932Z,-4.48
2023-02-08T01:20:41.106Z,-4.32
2023-02-08T01:23:09.104Z,-4.40
2023-02-08T01:25:38.352Z,-4.35
2023-02-08T01:28:06.977Z,-4.40
2023-02-08T01:30:34.857Z,-4.87
2023-02-08T01:33:02.745Z,-4.42
2023-02-08T01:35:30.686Z,-4.67
2023-02-08T01:37:58.721Z,-4.59
2023-02-08T01:40:26.596Z,-4.55
2023-02-08T01:42:55.826Z,-4.50
2023-02-08T01:45:27.675Z,-4.55
2023-02-08T01:48:01.730Z,-4.53
2023-02-08T01:50:35.572Z,-4.54
2023-02-08T01:53:04.035Z,-4.53
2023-02-08T01:55:35.596Z,-4.49
2023-02-08T01:58:07.385Z,-4.58
2023-02-08T02:00:35.465Z,-4.58
2023-02-08T02:03:05.556Z,-4.56
2023-02-08T02:05:39.396Z,-4.48
2023-02-08T02:08:08.594Z,-4.48
2023-02-08T02:10:38.567Z,-4.61
2023-02-08T02:13:11.401Z,-4.88
2023-02-08T02:15:39.338Z,-5.05
2023-02-08T02:18:09.516Z,-5.18
2023-02-08T02:20:56.406Z,-5.23
2023-02-08T02:23:56.271Z,-5.19
2023-02-08T02:26:54.793Z,-5.24
2023-02-08T02:29:55.190Z,-5.28
2023-02-08T02:32:35.628Z,-5.31
2023-02-08T02:35:09.174Z,-5.24
2023-02-08T02:37:49.589Z,-5.31
2023-02-08T02:40:31.138Z,-5.38
2023-02-08T02:43:23.672Z,-5.56
2023-02-08T02:46:00.043Z,-5.56
2023-02-08T02:48:39.473Z,-5.98
2023-02-08T02:51:12.373Z,-5.69
2023-02-08T02:53:50.024Z,-5.47
2023-02-08T02:56:23.047Z,-5.66
2023-02-08T02:58:52.049Z,-5.61
2023-02-08T03:01:26.031Z,-5.53
2023-02-08T03:03:55.782Z,-5.51
2023-02-08T03:06:33.832Z,-5.50
2023-02-08T03:09:21.144Z,-5.54
2023-02-08T03:11:57.888Z,-5.44
2023-02-08T03:14:35.973Z,-5.39
2023-02-08T03:17:24.111Z,-5.61
2023-02-08T03:20:04.231Z,-5.46
2023-02-08T03:22:38.905Z,-5.44
2023-02-08T03:25:13.694Z,-5.40
2023-02-08T03:27:50.178Z,-5.43
2023-02-08T03:30:23.215Z,-5.40
2023-02-08T03:32:55.769Z,-5.48
2023-02-08T03:35:30.534Z,-6.31
2023-02-08T03:38:01.601Z,-5.39
2023-02-08T03:40:32.694Z,-5.44
2023-02-08T03:43:04.365Z,-5.52
2023-02-08T03:45:37.603Z,-5.63
2023-02-08T03:48:09.964Z,-5.64
2023-02-08T03:50:42.176Z,-5.56
2023-02-08T03:53:11.785Z,-6.36
2023-02-08T03:55:41.834Z,-5.59
2023-02-08T03:58:18.056Z,-5.64
2023-02-08T04:00:53.393Z,-5.59
2023-02-08T04:03:27.212Z,-5.55
2023-02-08T04:05:56.684Z,-6.09
2023-02-08T04:08:24.770Z,-5.64
2023-02-08T04:10:52.689Z,-5.66
2023-02-08T04:13:20.533Z,-5.71
2023-02-08T04:15:48.417Z,-5.95
2023-02-08T04:18:16.334Z,-5.82
2023-02-08T04:20:44.263Z,-5.93
2023-02-08T04:23:13.523Z,-5.86
2023-02-08T04:25:41.404Z,-5.97
2023-02-08T04:28:09.261Z,-6.00
2023-02-08T04:30:37.275Z,-6.18
2023-02-08T04:33:06.379Z,-6.15
2023-02-08T04:35:37.739Z,-6.15
2023-02-08T04:38:06.671Z,-6.19
2023-02-08T04:40:36.644Z,-6.25
2023-02-08T04:43:04.550Z,-6.22
2023-02-08T04:45:33.060Z,-6.20
2023-02-08T04:48:03.941Z,-6.21
2023-02-08T04:50:31.996Z,-6.08
2023-02-08T04:52:59.878Z,-6.05
2023-02-08T04:55:28.131Z,-6.20
2023-02-08T04:57:57.356Z,-6.22
2023-02-08T05:00:25.294Z,-6.60
2023-02-08T05:02:55.932Z,-6.45
2023-02-08T05:05:24.274Z,-6.37
2023-02-08T05:07:52.466Z,-6.29
2023-02-08T05:10:20.941Z,-6.48
2023-02-08T05:12:48.883Z,-6.33
2023-02-08T05:15:19.696Z,-6.36
2023-02-08T05:17:48.156Z,-6.36
2023-02-08T05:20:16.320Z,-6.33
2023-02-08T05:22:44.188Z,-6.30
2023-02-08T05:25:12.256Z,-6.25
2023-02-08T05:27:40.221Z,-6.31
2023-02-08T05:30:09.164Z,-6.36
2023-02-08T05:32:38.427Z,-6.29
2023-02-08T05:35:06.921Z,-6.13
2023-02-08T05:37:34.768Z,-6.23
2023-02-08T05:40:04.803Z,-5.91
2023-02-08T05:42:32.799Z,-5.97
2023-02-08T05:45:00.645Z,-5.81
2023-02-08T05:47:28.557Z,-5.73
2023-02-08T05:49:57.824Z,-5.89
2023-02-08T05:52:25.711Z,-5.74
2023-02-08T05:54:53.571Z,-6.06
2023-02-08T05:57:21.455Z,-5.74
2023-02-08T05:59:49.363Z,-5.24
2023-02-08T06:02:17.233Z,-5.25
2023-02-08T06:04:46.179Z,-4.46
2023-02-08T06:07:15.611Z,-4.02
2023-02-08T06:09:43.473Z,-3.53
2023-02-08T06:12:11.503Z,-3.46
2023-02-08T06:14:39.383Z,-3.50
2023-02-08T06:17:07.312Z,-3.19
2023-02-08T06:19:35.173Z,-3.12
2023-02-08T06:22:03.796Z,-2.93
2023-02-08T06:24:33.207Z,-2.75
2023-02-08T06:27:01.168Z,-2.30
2023-02-08T06:29:29.120Z,-2.00
2023-02-08T06:31:57.081Z,-2.07
2023-02-08T06:34:25.149Z,-2.06
2023-02-08T06:36:53.045Z,-1.86
2023-02-08T06:39:21.028Z,-2.19
2023-02-08T06:41:50.302Z,-2.10
2023-02-08T06:44:18.382Z,-2.45
2023-02-08T06:46:46.623Z,-2.25
2023-02-08T06:49:14.628Z,-2.23
2023-02-08T06:51:42.606Z,-2.35
2023-02-08T06:54:10.530Z,-2.66
2023-02-08T06:56:38.548Z,-2.52
2023-02-08T06:59:07.887Z,-2.28
2023-02-08T07:01:35.816Z,-1.97
2023-02-08T07:04:06.099Z,-1.48
2023-02-08T07:06:34.117Z,-1.15
2023-02-08T07:09:02.729Z,-0.91
2023-02-08T07:11:30.680Z,-0.75
2023-02-08T07:14:00.376Z,-0.67
2023-02-08T07:16:29.714Z,-1.05
2023-02-08T07:18:57.614Z,-1.32
2023-02-08T07:21:25.611Z,-1.67
2023-02-08T07:23:53.613Z,-2.24
2023-02-08T07:26:21.759Z,-2.46
2023-02-08T07:28:49.718Z,-2.88
2023-02-08T07:31:18.875Z,-3.08
2023-02-08T07:33:48.128Z,-3.51
2023-02-08T07:36:16.077Z,-3.35
2023-02-08T07:38:44.282Z,-2.47
2023-02-08T07:41:13.917Z,-1.61
2023-02-08T07:43:43.233Z,-1.06
2023-02-08T07:46:13.973Z,-0.63
2023-02-08T07:48:42.269Z,-0.23
2023-02-08T07:51:13.160Z,-0.07
2023-02-08T07:53:42.097Z,-0.07
2023-02-08T07:56:10.932Z,0.38
2023-02-08T07:58:39.323Z,0.07
2023-02-08T08:01:20.124Z,0.04
2023-02-08T08:03:52.996Z,0.01
2023-02-08T08:06:24.026Z,-0.33
2023-02-08T08:08:52.251Z,-0.73
2023-02-08T08:11:21.314Z,-0.90
2023-02-08T08:13:49.700Z,-0.55
2023-02-08T08:16:18.191Z,-0.16
2023-02-08T08:18:46.229Z,0.21
2023-02-08T08:21:15.579Z,0.17
2023-02-08T08:23:45.272Z,0.97
2023-02-08T08:26:15.699Z,1.52
2023-02-08T08:28:43.799Z,1.75
2023-02-08T08:31:12.419Z,2.28
2023-02-08T08:33:41.516Z,2.68
2023-02-08T08:36:10.076Z,2.33
2023-02-08T08:38:39.468Z,1.63
2023-02-08T08:41:14.768Z,1.20
2023-02-08T08:43:43.038Z,1.31
2023-02-08T08:46:11.688Z,1.89
2023-02-08T08:48:40.196Z,1.78
2023-02-08T08:51:08.925Z,1.52
2023-02-08T08:53:38.210Z,1.99
2023-02-08T08:56:06.927Z,1.74
2023-02-08T08:58:36.278Z,1.68
2023-02-08T09:01:05.654Z,1.35
2023-02-08T09:03:33.744Z,2.15
2023-02-08T09:06:01.686Z,1.96
2023-02-08T09:08:29.559Z,2.21
2023-02-08T09:10:57.590Z,2.67
2023-02-08T09:13:25.478Z,2.91
2023-02-08T09:15:54.788Z,2.84
2023-02-08T09:18:22.768Z,2.73
2023-02-08T09:20:50.688Z,2.96
2023-02-08T09:23:18.553Z,3.02
2023-02-08T09:25:47.101Z,3.09
2023-02-08T09:28:15.966Z,2.06
2023-02-08T09:30:45.831Z,2.10
2023-02-08T09:33:15.563Z,1.96
2023-02-08T09:35:43.842Z,2.43
2023-02-08T09:38:12.145Z,2.40
2023-02-08T09:40:50.436Z,2.56
2023-02-08T09:43:24.046Z,1.72
2023-02-08T09:46:00.135Z,1.31
2023-02-08T09:48:32.905Z,1.34
2023-02-08T09:51:08.831Z,1.06
2023-02-08T09:53:41.652Z,0.72
2023-02-08T09:56:13.794Z,0.88
2023-02-08T09:58:44.489Z,1.65
2023-02-08T10:01:19.371Z,1.67
2023-02-08T10:03:51.693Z,1.73
2023-02-08T10:06:21.910Z,1.86
2023-02-08T10:08:52.785Z,1.22
2023-02-08T10:11:43.438Z,0.89
2023-02-08T10:14:32.894Z,2.12
2023-02-08T10:17:11.319Z,2.18
2023-02-08T10:19:56.059Z,1.18
2023-02-08T10:22:35.764Z,0.54
2023-02-08T10:25:29.124Z,0.95
2023-02-08T10:28:15.573Z,0.89
2023-02-08T10:30:51.825Z,0.63
2023-02-08T10:33:26.675Z,0.85
2023-02-08T10:35:56.785Z,0.78
2023-02-08T10:38:37.195Z,0.64
2023-02-08T10:41:17.625Z,0.72
2023-02-08T10:43:51.386Z,0.34
2023-02-08T10:46:28.104Z,0.28
2023-02-08T10:49:12.647Z,0.06
2023-02-08T10:51:42.491Z,0.12
2023-02-08T10:54:14.730Z,0.11
2023-02-08T10:56:47.722Z,-0.24
2023-02-08T10:59:24.937Z,-0.26
2023-02-08T11:01:54.870Z,-0.26
2023-02-08T11:04:28.345Z,-0.46
2023-02-08T11:07:03.559Z,-0.52
2023-02-08T11:09:35.240Z,-0.28
2023-02-08T11:12:06.612Z,-0.13
2023-02-08T11:14:47.089Z,-0.34
2023-02-08T11:17:35.334Z,-0.55
2023-02-08T11:20:06.104Z,-0.84
2023-02-08T11:22:35.695Z,-1.12
2023-02-08T11:25:15.045Z,-0.99
2023-02-08T11:27:56.991Z,-1.01
2023-02-08T11:30:35.650Z,-0.78
2023-02-08T11:33:26.100Z,-0.46
2023-02-08T11:36:00.128Z,-0.59
2023-02-08T11:38:35.598Z,-0.64
2023-02-08T11:41:08.873Z,-0.43
2023-02-08T11:43:43.018Z,0.37
2023-02-08T11:46:12.422Z,1.11
2023-02-08T11:48:45.082Z,1.74
2023-02-08T11:51:24.182Z,1.66
2023-02-08T11:53:54.383Z,0.98
2023-02-08T11:56:24.046Z,0.67
2023-02-08T11:59:06.805Z,0.35
2023-02-08T12:01:36.846Z,-0.42
2023-02-08T12:04:08.696Z,-0.52
2023-02-08T12:07:10.244Z,-0.56
2023-02-08T12:10:10.127Z,-0.75
2023-02-08T12:13:00.441Z,-0.43
2023-02-08T12:15:51.333Z,-0.05
2023-02-08T12:18:45.059Z,0.00
2023-02-08T12:21:19.087Z,0.24
2023-02-08T12:23:52.476Z,0.81
2023-02-08T12:26:35.616Z,0.87
2023-02-08T12:29:45.596Z,1.25
2023-02-08T12:32:32.699Z,1.85
2023-02-08T12:35:43.349Z,1.83
2023-02-08T12:38:43.761Z,1.11
2023-02-08T12:41:22.627Z,0.61
2023-02-08T12:44:02.310Z,0.41
2023-02-08T12:46:52.870Z,-0.04
2023-02-08T12:49:32.444Z,0.12
2023-02-08T12:52:10.787Z,0.02
2023-02-08T12:54:43.644Z,-0.34
2023-02-08T12:57:15.320Z,-0.42
2023-02-08T12:59:48.562Z,-0.30
2023-02-08T13:02:21.506Z,-0.32
2023-02-08T13:04:54.001Z,-0.59
2023-02-08T13:07:27.304Z,-0.51
2023-02-08T13:10:04.009Z,-0.31
2023-02-08T13:12:35.200Z,-0.40
2023-02-08T13:15:15.928Z,-0.59
2023-02-08T13:17:54.115Z,-0.51
2023-02-08T13:20:34.647Z,-0.43
2023-02-08T13:23:07.572Z,-0.41
2023-02-08T13:25:38.014Z,-0.85
2023-02-08T13:28:09.340Z,-0.45
2023-02-08T13:30:40.839Z,-0.53
2023-02-08T13:33:17.744Z,-0.87
2023-02-08T13:35:51.548Z,-0.87
2023-02-08T13:38:29.709Z,-0.72
2023-02-08T13:41:07.829Z,-0.95
2023-02-08T13:43:43.489Z,-1.06
2023-02-08T13:46:13.952Z,-1.03
2023-02-08T13:48:48.389Z,-1.03
2023-02-08T13:51:52.956Z,-1.08
2023-02-08T13:54:21.536Z,-1.25
2023-02-08T13:56:51.353Z,-1.14
2023-02-08T13:59:34.223Z,-1.13
2023-02-08T14:02:24.945Z,-1.14
2023-02-08T14:04:53.828Z,-1.18
2023-02-08T14:07:39.137Z,-1.25
2023-02-08T14:10:32.221Z,-1.11
2023-02-08T14:13:07.048Z,-1.31
2023-02-08T14:15:55.870Z,-1.25
2023-02-08T14:18:27.806Z,-1.34
2023-02-08T14:21:03.285Z,-1.29
2023-02-08T14:23:32.970Z,-1.64
2023-02-08T14:26:06.819Z,-1.44
2023-02-08T14:28:39.076Z,-1.79
2023-02-08T14:31:11.776Z,-1.66
2023-02-08T14:33:43.598Z,-1.69
2023-02-08T14:36:27.116Z,-1.68
2023-02-08T14:39:07.729Z,-2.24
2023-02-08T14:41:51.149Z,-1.61
2023-02-08T14:45:02.872Z,-1.80
2023-02-08T14:47:56.791Z,-2.40
2023-02-08T14:50:32.258Z,-1.99
2023-02-08T14:53:08.881Z,-2.06
2023-02-08T14:55:46.665Z,-2.18
2023-02-08T14:58:28.875Z,-2.12
2023-02-08T15:01:00.870Z,-2.41
2023-02-08T15:03:32.616Z,-2.23
2023-02-08T15:06:34.960Z,-2.11
2023-02-08T15:09:04.082Z,-2.34
2023-02-08T15:11:34.533Z,-2.12
2023-02-08T15:14:06.051Z,-2.17
2023-02-08T15:16:37.897Z,-2.52
2023-02-08T15:19:08.486Z,-2.41
2023-02-08T15:21:38.968Z,-2.41
2023-02-08T15:24:15.954Z,-2.50
2023-02-08T15:26:48.069Z,-2.62
2023-02-08T15:29:20.779Z,-2.56
2023-02-08T15:31:49.841Z,-2.61
2023-02-08T15:34:20.645Z,-2.69
2023-02-08T15:36:53.509Z,-2.67
2023-02-08T15:39:38.613Z,-2.71
2023-02-08T15:42:07.257Z,-2.66
2023-02-08T15:44:35.805Z,-2.68
2023-02-08T15:47:06.264Z,-2.69
2023-02-08T15:49:39.040Z,-2.89
2023-02-08T15:52:09.926Z,-3.01
2023-02-08T15:54:38.107Z,-2.85
2023-02-08T15:57:18.211Z,-2.89
2023-02-08T15:59:48.643Z,-3.06
2023-02-08T16:02:25.600Z,-3.12
2023-02-08T16:04:53.837Z,-3.14
2023-02-08T16:07:29.355Z,-3.21
2023-02-08T16:09:58.530Z,-3.42
2023-02-08T16:12:28.919Z,-3.34
2023-02-08T16:14:57.769Z,-3.24
2023-02-08T16:17:41.565Z,-3.56
2023-02-08T16:20:23.739Z,-3.46
2023-02-08T16:23:01.606Z,-3.33
2023-02-08T16:25:43.117Z,-3.62
2023-02-08T16:28:26.586Z,-3.29
2023-02-08T16:30:56.081Z,-3.29
2023-02-08T16:33:24.314Z,-3.34
2023-02-08T16:35:52.707Z,-3.71
2023-02-08T16:38:24.856Z,-3.32
2023-02-08T16:40:54.258Z,-3.33
2023-02-08T16:43:26.295Z,-3.26
2023-02-08T16:46:21.566Z,-3.32
2023-02-08T16:48:51.811Z,-3.47
2023-02-08T16:51:22.979Z,-3.34
2023-02-08T16:53:55.627Z,-3.80
2023-02-08T16:56:24.724Z,-3.42
2023-02-08T16:58:52.812Z,-3.63
2023-02-08T17:01:23.207Z,-3.33
2023-02-08T17:03:52.929Z,-3.33
2023-02-08T17:06:29.789Z,-3.51
2023-02-08T17:08:59.474Z,-3.47
2023-02-08T17:11:28.088Z,-3.49
2023-02-08T17:13:57.241Z,-3.61
2023-02-08T17:16:27.616Z,-3.61
2023-02-08T17:18:55.896Z,-3.77
2023-02-08T17:21:23.858Z,-3.63
2023-02-08T17:23:51.757Z,-3.58
2023-02-08T17:26:24.159Z,-3.58
2023-02-08T17:28:52.057Z,-3.64
2023-02-08T17:31:20.167Z,-3.71
2023-02-08T17:33:50.140Z,-3.75
2023-02-08T17:36:18.762Z,-3.83
2023-02-08T17:38:50.607Z,-3.91
2023-02-08T17:41:21.628Z,-3.89
2023-02-08T17:43:51.725Z,-3.88
2023-02-08T17:46:23.371Z,-4.08
2023-02-08T17:48:51.677Z,-4.04
2023-02-08T17:51:23.583Z,-4.12
2023-02-08T17:53:52.396Z,-4.19
2023-02-08T17:56:23.805Z,-4.24
2023-02-08T17:58:55.973Z,-4.34
2023-02-08T18:01:25.929Z,-4.18
2023-02-08T18:03:55.238Z,-4.12
2023-02-08T18:06:24.825Z,-4.07
2023-02-08T18:08:52.771Z,-4.08
2023-02-08T18:11:23.512Z,-4.07
2023-02-08T18:13:53.693Z,-4.03
2023-02-08T18:16:23.415Z,-4.24
2023-02-08T18:18:52.523Z,-4.06
2023-02-08T18:21:22.643Z,-4.01
2023-02-08T18:23:50.582Z,-4.32
2023-02-08T18:26:22.149Z,-4.13
2023-02-08T18:28:51.708Z,-4.32
2023-02-08T18:31:21.263Z,-4.14
2023-02-08T18:33:50.900Z,-4.14
2023-02-08T18:36:19.417Z,-4.17
2023-02-08T18:38:48.783Z,-4.13
2023-02-08T18:41:19.990Z,-4.12
2023-02-08T18:43:50.354Z,-4.04
2023-02-08T18:46:21.586Z,-4.16
2023-02-08T18:48:50.552Z,-4.31
2023-02-08T18:51:19.880Z,-4.65
2023-02-08T18:53:50.729Z,-4.31
2023-02-08T18:56:21.582Z,-4.29
2023-02-08T18:58:51.813Z,-4.87
2023-02-08T19:01:23.819Z,-4.26
2023-02-08T19:03:52.932Z,-4.12
2023-02-08T19:06:24.667Z,-4.21
2023-02-08T19:08:53.829Z,-4.09
2023-02-08T19:11:24.351Z,-4.30
2023-02-08T19:13:56.503Z,-4.37
2023-02-08T19:16:25.613Z,-4.53
2023-02-08T19:18:54.093Z,-4.38
2023-02-08T19:21:22.270Z,-4.31
2023-02-08T19:23:53.012Z,-4.19
2023-02-08T19:26:23.549Z,-4.10
2023-02-08T19:28:54.102Z,-4.07
2023-02-08T19:31:27.845Z,-4.15
2023-02-08T19:33:59.152Z,-4.23
2023-02-08T19:36:29.842Z,-4.43
2023-02-08T19:38:58.494Z,-4.52
2023-02-08T19:41:28.793Z,-4.51
2023-02-08T19:43:59.094Z,-4.50
2023-02-08T19:46:28.078Z,-4.32
2023-02-08T19:49:01.007Z,-4.40
2023-02-08T19:51:30.990Z,-4.48
2023-02-08T19:54:01.015Z,-4.47
2023-02-08T19:56:31.318Z,-4.84
2023-02-08T19:59:00.807Z,-4.56
2023-02-08T20:01:28.761Z,-4.47
2023-02-08T20:03:56.739Z,-4.56
2023-02-08T20:06:27.478Z,-4.64
2023-02-08T20:08:56.064Z,-4.67
2023-02-08T20:11:26.187Z,-4.76
2023-02-08T20:13:54.946Z,-4.87
2023-02-08T20:16:24.987Z,-4.96
2023-02-08T20:18:53.209Z,-4.96
2023-02-08T20:21:22.412Z,-5.21
2023-02-08T20:23:50.816Z,-4.78
2023-02-08T20:26:20.619Z,-4.95
2023-02-08T20:28:51.320Z,-4.82
2023-02-08T20:31:21.305Z,-5.04
2023-02-08T20:33:51.500Z,-4.97
2023-02-08T20:36:21.515Z,-4.88
2023-02-08T20:38:51.672Z,-4.78
2023-02-08T20:41:21.134Z,-4.92
2023-02-08T20:43:49.599Z,-5.29
2023-02-08T20:46:19.659Z,-5.02
2023-02-08T20:48:48.574Z,-5.16
2023-02-08T20:51:19.976Z,-5.34
2023-02-08T20:53:49.510Z,-5.18
2023-02-08T20:56:20.440Z,-5.35
2023-02-08T20:58:48.736Z,-5.31
2023-02-08T21:01:19.843Z,-5.17
2023-02-08T21:03:48.462Z,-5.05
2023-02-08T21:06:20.378Z,-4.96
2023-02-08T21:08:51.696Z,-5.24
2023-02-08T21:11:22.072Z,-5.13
2023-02-08T21:13:51.565Z,-5.15
2023-02-08T21:16:20.339Z,-5.78
2023-02-08T21:18:48.567Z,-5.41
2023-02-08T21:21:18.771Z,-5.38
2023-02-08T21:23:48.417Z,-5.25
2023-02-08T21:26:18.074Z,-5.43
2023-02-08T21:28:46.865Z,-5.52
2023-02-08T21:31:22.273Z,-5.55
2023-02-08T21:33:51.507Z,-5.59
2023-02-08T21:36:24.667Z,-5.50
2023-02-08T21:38:52.974Z,-5.45
2023-02-08T21:41:23.217Z,-5.50
2023-02-08T21:43:52.318Z,-5.63
2023-02-08T21:46:20.238Z,-5.63
2023-02-08T21:49:05.916Z,-5.62
2023-02-08T21:51:53.598Z,-5.60
2023-02-08T21:54:41.167Z,-5.71
2023-02-08T21:57:12.435Z,-5.69
2023-02-08T21:59:40.770Z,-5.53
2023-02-08T22:02:11.826Z,-5.59
2023-02-08T22:04:39.796Z,-5.66
2023-02-08T22:07:09.017Z,-5.69
2023-02-08T22:09:36.895Z,-5.67
2023-02-08T22:12:05.019Z,-5.70
2023-02-08T22:14:35.936Z,-5.70
2023-02-08T22:17:04.058Z,-5.58
2023-02-08T22:19:31.958Z,-5.55
2023-02-08T22:22:02.389Z,-5.46
2023-02-08T22:24:33.222Z,-5.61
2023-02-08T22:27:01.646Z,-5.59
2023-02-08T22:29:29.716Z,-5.61
2023-02-08T22:31:57.692Z,-5.70
2023-02-08T22:34:27.107Z,-5.83
2023-02-08T22:36:55.139Z,-5.85
2023-02-08T22:39:23.202Z,-5.79
2023-02-08T22:41:52.866Z,-5.71
2023-02-08T22:44:20.773Z,-5.63
2023-02-08T22:46:49.225Z,-5.65
2023-02-08T22:49:17.645Z,-5.78
2023-02-08T22:51:45.553Z,-5.72
2023-02-08T22:54:13.474Z,-5.76
2023-02-08T22:56:42.767Z,-5.86
2023-02-08T22:59:12.083Z,-5.83
2023-02-08T23:01:40.386Z,-5.86
2023-02-08T23:04:08.352Z,-5.86
2023-02-08T23:06:36.674Z,-5.72
2023-02-08T23:09:06.624Z,-5.85
2023-02-08T23:11:34.921Z,-5.88
2023-02-08T23:14:02.804Z,-5.69
2023-02-08T23:16:32.679Z,-5.68
2023-02-08T23:19:01.694Z,-5.65
2023-02-08T23:21:29.552Z,-5.63
2023-02-08T23:23:57.503Z,-6.06
2023-02-08T23:26:28.039Z,-5.77
2023-02-08T23:28:55.903Z,-5.83
2023-02-08T23:31:24.101Z,-5.83
2023-02-08T23:33:53.364Z,-5.91
2023-02-08T23:36:23.495Z,-5.80
2023-02-08T23:38:51.968Z,-5.78
2023-02-08T23:41:21.735Z,-5.69
2023-02-08T23:43:51.188Z,-5.75
2023-02-08T23:46:21.691Z,-6.09
2023-02-08T23:48:50.032Z,-5.89
2023-02-08T23:51:21.237Z,-5.85
2023-02-08T23:53:52.169Z,-6.31
2023-02-08T23:56:25.452Z,-5.80
2023-02-08T23:58:55.326Z,-5.83
